Sunday, February 18, 2018, 3:27 AM GMT
Back to Local

CXBO, Beauport CS, Que.

Location: , , Canada Lat: 46.833
Local Time: 3:27 AM GMT ( 3:27 GMT) Lon: -71.2
Time Zone: GMT Elev: 32 ft

Show me the last for .
Show Coded

Time T Td Feel RH Dir Speed Gust Alt SLP Vis Weather Sky Remarks
2018-02-18 03:00 - - - 0 50° 5 - - - 0 None
2018-02-18 02:00 - - - 0 40° 5 - - - 0 None
2018-02-18 01:00 - - - 0 50° 6 - - - 0 None
2018-02-18 00:00 - - - 0 30° 3 - - - 0 None
2018-02-17 23:00 - - - 0 50° 3 - - - 0 None
2018-02-17 22:00 - - - 0 - Calm - - - 0 None
2018-02-17 21:00 - - - 0 260° 3 - - - 0 None
2018-02-17 20:00 - - - 0 250° 6 - - - 0 None
2018-02-17 19:00 - - - 0 80° 2 - - - 0 None
2018-02-17 18:00 - - - 0 80° 2 - - - 0 None
2018-02-17 17:00 - - - 0 50° 2 - - - 0 None
2018-02-17 16:00 - - - 0 40° 2 - - - 0 None
2018-02-17 15:00 - - - 0 360° 2 - - - 0 None
2018-02-17 14:00 - - - 0 250° 2 - - - 0 None
2018-02-17 13:00 - - - 0 270° 6 - - - 0 None
2018-02-17 12:00 - - - 0 250° 5 - - - 0 None
2018-02-17 11:00 - - - 0 270° 5 - - - 0 None
2018-02-17 10:00 - - - 0 280° 1 - - - 0 None
2018-02-17 09:00 - - - 0 260° 6 - - - 0 None
2018-02-17 08:00 - - - 0 240° 8 - - - 0 None
2018-02-17 07:00 - - - 0 230° 8 - - - 0 None
2018-02-17 06:00 - - - 0 250° 8 - - - 0 None
2018-02-17 05:00 - - - 0 260° 9 - - - 0 None
2018-02-17 04:00 - - - 0 250° 8 - - - 0 None

Support USWX by starting your Amazon purchase here.